Time;durP1;ratioP1;P1;durP2;ratioP2;P2;SDS_P1;SDS_P2;PMS_P1;PMS_P2;Temp;Humidity;BMP_temperature;BMP_pressure;BME280_temperature;BME280_humidity;BME280_pressure;Samples;Min_cycle;Max_cycle;Signal;HPM_P1;HPM_P2
2020/12/02 00:01:09;;;;;;;21.33;18.60;;;2.60;99.90;;;;;;5068759;28;20717;-69
2020/12/02 00:03:40;;;;;;;25.13;20.40;;;2.60;99.90;;;;;;5069364;28;20259;-69
2020/12/02 00:06:07;;;;;;;25.10;20.60;;;2.60;99.90;;;;;;5068723;28;20178;-68
2020/12/02 00:08:38;;;;;;;22.70;19.10;;;2.60;99.90;;;;;;5068790;28;20191;-68
2020/12/02 00:11:11;;;;;;;23.80;19.37;;;2.60;99.90;;;;;;5068455;28;20583;-68
2020/12/02 00:17:17;;;;;;;23.00;18.87;;;2.60;99.90;;;;;;5068725;28;20419;-68
2020/12/02 00:19:43;;;;;;;24.13;19.73;;;2.60;99.90;;;;;;5069109;28;20206;-68
2020/12/02 00:22:16;;;;;;;24.13;19.93;;;2.60;99.90;;;;;;5073039;28;20700;-68
2020/12/02 00:24:42;;;;;;;25.20;20.77;;;2.60;99.90;;;;;;5072834;28;20248;-69
2020/12/02 00:27:17;;;;;;;25.27;19.83;;;2.60;99.90;;;;;;5073524;28;20258;-69
2020/12/02 00:29:44;;;;;;;24.30;18.73;;;2.60;99.90;;;;;;5074726;28;20219;-68
2020/12/02 00:32:21;;;;;;;24.23;19.00;;;2.60;99.90;;;;;;5074192;28;20175;-68
2020/12/02 00:34:47;;;;;;;25.93;19.90;;;2.60;99.90;;;;;;5071551;28;20182;-69
2020/12/02 00:37:13;;;;;;;24.00;19.40;;;2.60;99.90;;;;;;5072699;28;20163;-69
2020/12/02 00:39:38;;;;;;;24.80;20.13;;;2.60;99.90;;;;;;5071253;28;20892;-69
2020/12/02 01:05:38;;;;;;;28.53;20.27;;;2.60;99.90;;;;;;5049292;28;20221;-68
2020/12/02 01:08:29;;;;;;;26.50;20.50;;;2.60;99.90;;;;;;5060600;28;20707;-67
2020/12/02 01:11:11;;;;;;;22.70;18.87;;;2.60;99.90;;;;;;5068991;28;20248;-68
2020/12/02 01:13:38;;;;;;;25.20;19.47;;;2.60;99.90;;;;;;5050999;28;20186;-68
2020/12/02 01:16:07;;;;;;;26.47;19.40;;;2.60;99.90;;;;;;5071379;28;21079;-68
2020/12/02 01:18:33;;;;;;;25.40;19.50;;;2.60;99.90;;;;;;5071738;28;20230;-68
2020/12/02 01:21:24;;;;;;;29.57;20.37;;;2.50;99.90;;;;;;5071838;28;20372;-68
2020/12/02 01:24:00;;;;;;;31.23;22.13;;;2.50;99.90;;;;;;5059061;28;20209;-68
2020/12/02 01:26:31;;;;;;;31.97;21.53;;;2.50;99.90;;;;;;5067680;28;20175;-67
2020/12/02 01:29:00;;;;;;;34.80;22.70;;;2.50;99.90;;;;;;5071281;28;20553;-68
2020/12/02 01:31:26;;;;;;;31.87;22.83;;;2.50;99.90;;;;;;5071579;28;20186;-67
2020/12/02 01:33:53;;;;;;;30.27;21.90;;;2.50;99.90;;;;;;5071424;28;20185;-69
2020/12/02 01:36:25;;;;;;;31.80;23.17;;;2.50;99.90;;;;;;5069939;28;20181;-69
2020/12/02 01:38:52;;;;;;;31.47;20.77;;;2.50;99.90;;;;;;5069405;28;20201;-68
2020/12/02 01:41:18;;;;;;;29.33;20.73;;;2.50;99.90;;;;;;5071267;28;20188;-68
2020/12/02 01:43:44;;;;;;;30.57;22.10;;;2.60;99.90;;;;;;5070322;28;20208;-68
2020/12/02 01:46:36;;;;;;;28.83;20.70;;;2.60;99.90;;;;;;5071608;28;20175;-68
2020/12/02 01:49:24;;;;;;;26.50;20.23;;;2.60;99.90;;;;;;5071605;28;20281;-68
2020/12/02 01:52:05;;;;;;;26.03;19.50;;;2.60;99.90;;;;;;5070680;28;20224;-67
2020/12/02 01:54:36;;;;;;;25.57;19.17;;;2.60;99.90;;;;;;5066111;28;20248;-68
2020/12/02 01:57:14;;;;;;;27.27;19.70;;;2.60;99.90;;;;;;5074727;28;20163;-67
2020/12/02 02:00:04;;;;;;;25.63;19.73;;;2.60;99.90;;;;;;5069466;28;20200;-67
2020/12/02 02:02:42;;;;;;;27.83;20.40;;;2.50;99.90;;;;;;5069216;28;20189;-68
2020/12/02 02:05:14;;;;;;;26.03;19.27;;;2.50;99.90;;;;;;5070552;28;20200;-69
2020/12/02 02:07:40;;;;;;;30.67;21.47;;;2.50;99.90;;;;;;5070691;28;20229;-67
2020/12/02 02:10:22;;;;;;;26.70;19.27;;;2.50;99.90;;;;;;5069539;28;20188;-67
2020/12/02 02:13:10;;;;;;;30.63;21.77;;;2.50;99.90;;;;;;5070520;28;20233;-67
2020/12/02 02:15:54;;;;;;;27.63;20.77;;;2.50;99.90;;;;;;5069404;28;20597;-68
2020/12/02 02:18:24;;;;;;;26.23;19.87;;;2.50;99.90;;;;;;5069956;28;20205;-68
2020/12/02 02:20:54;;;;;;;28.47;21.33;;;2.50;99.90;;;;;;5070123;28;20258;-68
2020/12/02 02:23:20;;;;;;;31.97;21.97;;;2.50;99.90;;;;;;5068713;28;20186;-68
2020/12/02 02:26:06;;;;;;;27.53;20.63;;;2.50;99.90;;;;;;5070321;28;20185;-68
2020/12/02 02:28:35;;;;;;;27.30;20.37;;;2.50;99.90;;;;;;5069857;28;20290;-68
2020/12/02 02:31:05;;;;;;;27.67;19.83;;;2.50;99.90;;;;;;5069731;28;20199;-68
2020/12/02 02:33:31;;;;;;;26.67;19.77;;;2.50;99.90;;;;;;5063637;28;20168;-68
2020/12/02 02:35:57;;;;;;;27.50;20.87;;;2.50;99.90;;;;;;5070323;28;20179;-68
2020/12/02 02:38:23;;;;;;;26.77;20.50;;;2.50;99.90;;;;;;5070060;28;20234;-68
2020/12/02 02:40:49;;;;;;;28.13;19.93;;;2.50;99.90;;;;;;5068502;28;20183;-68
2020/12/02 02:43:14;;;;;;;27.87;20.10;;;2.50;99.90;;;;;;5069885;28;20190;-68
2020/12/02 02:45:40;;;;;;;30.77;21.03;;;2.50;99.90;;;;;;5070308;28;20180;-68
2020/12/02 02:48:06;;;;;;;27.03;19.73;;;2.50;99.90;;;;;;5069866;28;20541;-68
2020/12/02 02:50:36;;;;;;;27.90;19.87;;;2.50;99.90;;;;;;5068803;28;20713;-67
2020/12/02 02:53:12;;;;;;;33.80;22.20;;;2.50;99.90;;;;;;5070029;28;20193;-68
2020/12/02 02:55:38;;;;;;;29.47;21.13;;;2.50;99.90;;;;;;5070235;28;20175;-73
2020/12/02 02:58:04;;;;;;;32.67;21.73;;;2.50;99.90;;;;;;5069851;28;20186;-67
2020/12/02 03:00:33;;;;;;;30.77;22.63;;;2.50;99.90;;;;;;5068820;28;20176;-67
2020/12/02 03:02:59;;;;;;;28.37;20.77;;;2.50;99.90;;;;;;5070167;28;20175;-68
2020/12/02 03:05:25;;;;;;;31.67;20.87;;;2.40;99.90;;;;;;5073354;28;20182;-68
2020/12/02 03:07:57;;;;;;;32.80;22.63;;;2.50;99.90;;;;;;5069882;28;20178;-67
2020/12/02 03:10:27;;;;;;;31.73;22.47;;;2.50;99.90;;;;;;5068992;28;20198;-68
2020/12/02 03:12:54;;;;;;;28.40;20.63;;;2.50;99.90;;;;;;5069285;28;20263;-68
2020/12/02 03:15:20;;;;;;;27.50;19.03;;;2.50;99.90;;;;;;5069480;28;20211;-68
2020/12/02 03:17:47;;;;;;;26.17;19.43;;;2.50;99.90;;;;;;5069679;28;20602;-68
2020/12/02 03:20:37;;;;;;;27.07;19.03;;;2.50;99.90;;;;;;5069479;28;20757;-68
2020/12/02 03:23:03;;;;;;;27.47;21.33;;;2.50;99.90;;;;;;5067429;28;20167;-68
2020/12/02 03:25:32;;;;;;;28.83;21.00;;;2.50;99.90;;;;;;5068544;28;20282;-67
2020/12/02 03:27:58;;;;;;;26.00;19.40;;;2.50;99.90;;;;;;5069662;28;20195;-67
2020/12/02 03:30:25;;;;;;;27.20;20.40;;;2.40;99.90;;;;;;5068289;28;20205;-67
2020/12/02 03:32:51;;;;;;;28.03;21.30;;;2.40;99.90;;;;;;5069289;28;20175;-67
2020/12/02 03:35:16;;;;;;;31.33;21.70;;;2.40;99.90;;;;;;5069029;28;20544;-67
2020/12/02 03:37:42;;;;;;;37.53;26.93;;;2.40;99.90;;;;;;5068281;28;20183;-67
2020/12/02 03:40:09;;;;;;;70.33;43.50;;;2.40;99.90;;;;;;5069291;28;20198;-67
2020/12/02 03:42:35;;;;;;;96.30;56.43;;;2.40;99.90;;;;;;5069105;28;20266;-67
2020/12/02 03:45:01;;;;;;;58.97;39.33;;;2.40;99.90;;;;;;5065125;28;20308;-67
2020/12/02 03:47:27;;;;;;;32.47;26.07;;;2.40;99.90;;;;;;5069401;28;20182;-67
2020/12/02 03:49:53;;;;;;;32.80;24.50;;;2.40;99.90;;;;;;5069057;28;20206;-68
2020/12/02 03:52:18;;;;;;;30.37;23.20;;;2.40;99.90;;;;;;5071122;28;20175;-67
2020/12/02 03:54:44;;;;;;;30.57;23.50;;;2.40;99.90;;;;;;5072936;28;20175;-67
2020/12/02 03:57:09;;;;;;;27.13;21.10;;;2.40;99.90;;;;;;5073286;28;20705;-67
2020/12/02 03:59:35;;;;;;;27.60;20.90;;;2.40;99.90;;;;;;5072817;28;20206;-69
2020/12/02 04:02:01;;;;;;;27.60;20.87;;;2.40;99.90;;;;;;5073677;28;20187;-69
2020/12/02 04:04:26;;;;;;;24.40;19.07;;;2.40;99.90;;;;;;5073014;28;20175;-68
2020/12/02 04:06:52;;;;;;;27.43;19.80;;;2.40;99.90;;;;;;5073182;28;20578;-69
2020/12/02 04:09:17;;;;;;;27.93;19.83;;;2.40;99.90;;;;;;5071785;28;20256;-68
2020/12/02 04:11:43;;;;;;;23.70;18.37;;;2.40;99.90;;;;;;5072743;28;20736;-68
2020/12/02 04:14:09;;;;;;;27.77;20.30;;;2.40;99.90;;;;;;5072860;28;20201;-68
2020/12/02 04:16:35;;;;;;;28.40;19.37;;;2.40;99.90;;;;;;5071874;28;20596;-67
2020/12/02 04:19:01;;;;;;;25.80;19.77;;;2.40;99.90;;;;;;5072135;28;20212;-67
2020/12/02 04:21:27;;;;;;;28.80;21.30;;;2.40;99.90;;;;;;5067286;28;20174;-68
2020/12/02 04:23:54;;;;;;;24.87;19.77;;;2.40;99.90;;;;;;5072796;28;20175;-68
2020/12/02 04:26:20;;;;;;;23.63;19.37;;;2.40;99.90;;;;;;5069736;28;20182;-68
2020/12/02 04:28:45;;;;;;;26.63;19.67;;;2.40;99.90;;;;;;5073544;28;20202;-68
2020/12/02 04:31:11;;;;;;;22.77;18.87;;;2.40;99.90;;;;;;5072965;28;20709;-68
2020/12/02 04:33:37;;;;;;;24.87;18.97;;;2.30;99.90;;;;;;5073151;28;20171;-67
2020/12/02 04:36:02;;;;;;;20.20;17.43;;;2.30;99.90;;;;;;5071617;28;20172;-68
2020/12/02 04:38:28;;;;;;;24.93;19.80;;;2.30;99.90;;;;;;5073095;28;20202;-68
2020/12/02 04:40:54;;;;;;;31.83;23.17;;;2.30;99.90;;;;;;5071798;28;20788;-68
2020/12/02 04:43:28;;;;;;;40.57;26.03;;;2.30;99.90;;;;;;5072879;28;20183;-69
2020/12/02 04:45:55;;;;;;;28.53;20.30;;;2.30;99.90;;;;;;5062811;28;20266;-69
2020/12/02 04:48:25;;;;;;;27.20;23.63;;;2.30;99.90;;;;;;5072026;28;21205;-69
2020/12/02 04:50:56;;;;;;;25.70;20.57;;;2.30;99.90;;;;;;5072612;28;20194;-68
2020/12/02 04:53:24;;;;;;;20.20;17.27;;;2.20;99.90;;;;;;5072108;28;20175;-67
2020/12/02 04:55:53;;;;;;;22.60;17.93;;;2.20;99.90;;;;;;5071997;28;20275;-68
2020/12/02 04:58:25;;;;;;;21.60;16.57;;;2.20;99.90;;;;;;5060977;28;20658;-68
2020/12/02 05:00:51;;;;;;;20.33;16.43;;;2.20;99.90;;;;;;5071944;28;20175;-68
2020/12/02 05:03:16;;;;;;;19.30;16.00;;;2.20;99.90;;;;;;5071524;28;20189;-68
2020/12/02 05:05:43;;;;;;;18.83;15.23;;;2.20;99.90;;;;;;5072346;28;20190;-68
2020/12/02 05:08:16;;;;;;;19.97;15.90;;;2.20;99.90;;;;;;5072615;28;20184;-68
2020/12/02 05:10:41;;;;;;;20.23;16.00;;;2.20;99.90;;;;;;5072289;28;20207;-67
2020/12/02 05:13:11;;;;;;;22.57;15.50;;;2.20;99.90;;;;;;5072113;28;20190;-68
2020/12/02 05:15:37;;;;;;;20.53;15.97;;;2.20;99.90;;;;;;5071903;28;20175;-68
2020/12/02 05:18:11;;;;;;;19.50;15.77;;;2.20;99.90;;;;;;5071077;28;20331;-71
2020/12/02 05:20:37;;;;;;;21.63;16.27;;;2.20;99.90;;;;;;5070455;28;20528;-68
2020/12/02 05:23:29;;;;;;;22.40;16.30;;;2.20;99.90;;;;;;5068670;28;20186;-67
2020/12/02 05:25:55;;;;;;;21.27;15.30;;;2.20;99.90;;;;;;5066395;28;20253;-68
2020/12/02 05:28:31;;;;;;;19.90;15.47;;;2.10;99.90;;;;;;5067772;28;20216;-69
2020/12/02 05:31:07;;;;;;;20.40;16.13;;;2.10;99.90;;;;;;5065309;28;20222;-68
2020/12/02 05:33:34;;;;;;;20.63;15.73;;;2.10;99.90;;;;;;5064820;28;20550;-68
2020/12/02 05:36:10;;;;;;;19.63;15.17;;;2.10;99.90;;;;;;5064725;28;20191;-69
2020/12/02 05:38:44;;;;;;;18.13;14.90;;;2.10;99.90;;;;;;5063675;28;20195;-68
2020/12/02 05:41:15;;;;;;;19.53;15.67;;;2.10;99.90;;;;;;5070939;28;20576;-68
2020/12/02 05:43:47;;;;;;;20.10;14.87;;;2.10;99.90;;;;;;5071517;28;20183;-68
2020/12/02 05:46:23;;;;;;;19.87;14.33;;;2.10;99.90;;;;;;5071967;28;20637;-67
2020/12/02 05:49:00;;;;;;;22.20;16.13;;;2.10;99.90;;;;;;5070655;28;20274;-69
2020/12/02 05:51:26;;;;;;;21.27;16.10;;;2.00;99.90;;;;;;5074578;28;20715;-69
2020/12/02 05:53:55;;;;;;;28.27;17.27;;;2.00;99.90;;;;;;5069244;28;20183;-68
2020/12/02 05:56:21;;;;;;;21.40;15.67;;;2.00;99.90;;;;;;5066179;28;20177;-68
2020/12/02 05:58:47;;;;;;;24.87;16.70;;;2.00;99.90;;;;;;5065779;28;20194;-68
2020/12/02 06:01:15;;;;;;;21.60;16.03;;;2.10;99.90;;;;;;5068516;28;20520;-69
2020/12/02 06:03:45;;;;;;;22.17;15.13;;;2.10;99.90;;;;;;5070302;28;20183;-67
2020/12/02 06:06:13;;;;;;;20.77;15.43;;;2.10;99.90;;;;;;5070901;28;20174;-73
2020/12/02 06:08:42;;;;;;;20.50;14.83;;;2.00;99.90;;;;;;5071201;28;20561;-65
2020/12/02 06:11:16;;;;;;;21.90;15.43;;;2.00;99.90;;;;;;5068281;28;20708;-67
2020/12/02 06:13:55;;;;;;;17.57;13.33;;;2.10;99.90;;;;;;5068816;28;20182;-68
2020/12/02 06:16:43;;;;;;;20.90;14.37;;;2.10;99.90;;;;;;5068924;28;20175;-68
2020/12/02 06:19:44;;;;;;;20.70;14.27;;;2.10;99.90;;;;;;5070212;28;20209;-68
2020/12/02 06:22:10;;;;;;;23.63;16.30;;;2.10;99.90;;;;;;5069802;28;20214;-67
2020/12/02 06:24:44;;;;;;;21.77;14.60;;;2.10;99.90;;;;;;5070557;28;20800;-67
2020/12/02 06:27:15;;;;;;;21.97;15.90;;;2.10;99.90;;;;;;5066607;28;20193;-68
2020/12/02 06:29:47;;;;;;;21.83;15.03;;;2.10;99.90;;;;;;5068528;28;20198;-68
2020/12/02 06:32:18;;;;;;;21.07;15.40;;;2.10;99.90;;;;;;5071133;28;20539;-67
2020/12/02 06:34:46;;;;;;;21.27;15.70;;;2.00;99.90;;;;;;5070910;28;20167;-67
2020/12/02 06:37:24;;;;;;;21.77;14.30;;;2.10;99.90;;;;;;5069544;28;20793;-69
2020/12/02 06:39:59;;;;;;;22.47;15.07;;;2.00;99.90;;;;;;5069151;28;20347;-67
2020/12/02 06:42:38;;;;;;;20.57;14.83;;;2.00;99.90;;;;;;5058963;28;20740;-67
2020/12/02 06:45:15;;;;;;;18.90;14.73;;;2.10;99.90;;;;;;5064616;28;20169;-67
2020/12/02 06:47:50;;;;;;;21.73;15.00;;;2.10;99.90;;;;;;5069824;28;20186;-68
2020/12/02 06:50:22;;;;;;;19.87;14.60;;;2.10;99.90;;;;;;5054485;28;20213;-67
2020/12/02 06:52:49;;;;;;;19.17;13.40;;;2.20;99.90;;;;;;5060310;28;20661;-68
2020/12/02 06:55:27;;;;;;;20.27;13.77;;;2.20;99.90;;;;;;5062719;28;20175;-68
2020/12/02 06:58:02;;;;;;;21.50;13.70;;;2.10;99.90;;;;;;5067716;28;20741;-68
2020/12/02 07:00:37;;;;;;;18.27;13.47;;;2.20;99.90;;;;;;5055012;28;20191;-67
2020/12/02 07:03:14;;;;;;;20.33;14.63;;;2.10;99.90;;;;;;5060295;28;20223;-67
2020/12/02 07:05:44;;;;;;;18.83;14.10;;;2.10;99.90;;;;;;5069207;28;20185;-67
2020/12/02 07:08:15;;;;;;;18.60;13.43;;;2.20;99.90;;;;;;5059050;28;20172;-67
2020/12/02 07:10:52;;;;;;;19.30;14.43;;;2.20;99.90;;;;;;5066137;28;20210;-67
2020/12/02 07:13:18;;;;;;;21.47;14.30;;;2.30;99.90;;;;;;5058464;28;20185;-67
2020/12/02 07:15:44;;;;;;;19.70;14.03;;;2.30;99.90;;;;;;5066810;28;20174;-68
2020/12/02 07:18:16;;;;;;;20.60;14.43;;;2.30;99.90;;;;;;5069275;28;20194;-67
2020/12/02 07:20:48;;;;;;;19.83;14.40;;;2.30;99.90;;;;;;5068440;28;20179;-68
2020/12/02 07:23:19;;;;;;;20.07;14.40;;;2.20;99.90;;;;;;5063709;28;20203;-68
2020/12/02 07:25:45;;;;;;;22.77;15.83;;;2.20;99.90;;;;;;5069079;28;20190;-67
2020/12/02 07:28:19;;;;;;;19.10;14.03;;;2.20;99.90;;;;;;5065272;28;20187;-68
2020/12/02 07:30:46;;;;;;;19.90;14.33;;;2.20;99.90;;;;;;5068207;28;20194;-66
2020/12/02 07:33:27;;;;;;;18.63;13.80;;;2.20;99.90;;;;;;5066015;28;20199;-69
2020/12/02 07:36:14;;;;;;;19.33;14.23;;;2.20;99.90;;;;;;5062463;28;20188;-67
2020/12/02 07:38:44;;;;;;;19.93;15.30;;;2.30;99.90;;;;;;5064477;28;20205;-68
2020/12/02 07:41:18;;;;;;;21.97;16.10;;;2.30;99.90;;;;;;5069610;28;20181;-68
2020/12/02 07:43:47;;;;;;;18.57;13.97;;;2.20;99.90;;;;;;5069046;28;20237;-68
2020/12/02 07:46:14;;;;;;;19.17;14.30;;;2.10;99.90;;;;;;5069506;28;20185;-68
2020/12/02 07:48:41;;;;;;;22.57;15.90;;;2.10;99.90;;;;;;5069549;28;20241;-68
2020/12/02 07:51:17;;;;;;;22.43;15.67;;;2.10;99.90;;;;;;5069450;28;20209;-69
2020/12/02 07:54:07;;;;;;;21.90;15.77;;;2.00;99.90;;;;;;5077405;28;20178;-68
2020/12/02 07:56:38;;;;;;;22.67;16.10;;;2.00;99.90;;;;;;5079658;28;20258;-68
2020/12/02 07:59:29;;;;;;;22.87;15.67;;;2.00;99.90;;;;;;5069798;28;20273;-67
2020/12/02 08:01:58;;;;;;;22.63;14.40;;;2.00;99.90;;;;;;5067278;28;20185;-68
2020/12/02 08:04:23;;;;;;;23.70;16.70;;;2.00;99.90;;;;;;5069276;28;20318;-68
2020/12/02 08:06:58;;;;;;;27.73;19.00;;;2.00;99.90;;;;;;5069625;28;20237;-68
2020/12/02 08:09:24;;;;;;;23.97;16.87;;;2.00;99.90;;;;;;5067213;28;20293;-67
2020/12/02 08:12:00;;;;;;;25.50;16.90;;;2.00;99.90;;;;;;5069185;28;20238;-67
2020/12/02 08:14:28;;;;;;;25.33;17.77;;;1.90;99.90;;;;;;5068317;28;20178;-68
2020/12/02 08:17:03;;;;;;;23.00;15.87;;;1.90;99.90;;;;;;5066917;28;20181;-69
2020/12/02 08:19:32;;;;;;;26.07;17.07;;;1.90;99.90;;;;;;5068479;28;20212;-66
2020/12/02 08:21:58;;;;;;;24.30;15.40;;;1.90;99.90;;;;;;5073900;28;20256;-67
2020/12/02 08:24:42;;;;;;;23.90;17.00;;;1.90;99.90;;;;;;5080075;28;20175;-66
2020/12/02 08:27:12;;;;;;;24.33;16.63;;;1.90;99.90;;;;;;5060401;28;20173;-67
2020/12/02 08:29:39;;;;;;;22.93;15.80;;;2.00;99.90;;;;;;5068230;28;20238;-66
2020/12/02 08:32:04;;;;;;;22.73;15.93;;;2.00;99.90;;;;;;5067342;28;20202;-67
2020/12/02 08:34:32;;;;;;;18.70;14.17;;;2.00;99.90;;;;;;5064626;28;20215;-67
2020/12/02 08:37:10;;;;;;;24.33;16.53;;;2.00;99.90;;;;;;5064003;28;20594;-67
2020/12/02 08:39:38;;;;;;;20.50;14.10;;;2.00;99.90;;;;;;5064007;28;20352;-66
2020/12/02 08:42:04;;;;;;;18.67;13.97;;;2.00;99.90;;;;;;5071793;28;20255;-67
2020/12/02 08:44:30;;;;;;;22.07;14.17;;;1.90;99.90;;;;;;5072565;28;20274;-67
2020/12/02 08:47:14;;;;;;;18.67;14.93;;;1.90;99.90;;;;;;5070833;28;20426;-68
2020/12/02 08:49:39;;;;;;;18.60;13.00;;;1.90;99.90;;;;;;5056203;28;20205;-66
2020/12/02 08:52:07;;;;;;;19.03;13.40;;;1.90;99.90;;;;;;5071928;28;20171;-66
2020/12/02 08:54:33;;;;;;;17.70;13.07;;;2.00;99.90;;;;;;5069965;28;20171;-68
2020/12/02 08:57:07;;;;;;;17.80;13.30;;;2.00;99.90;;;;;;5072224;28;20206;-67
2020/12/02 08:59:34;;;;;;;17.17;13.10;;;2.00;99.90;;;;;;5071718;28;20201;-67
2020/12/02 09:02:18;;;;;;;17.83;12.77;;;2.00;99.90;;;;;;5067647;28;20185;-69
2020/12/02 09:04:46;;;;;;;17.03;12.10;;;2.00;99.90;;;;;;5071464;28;20213;-67
2020/12/02 09:07:13;;;;;;;19.20;12.97;;;2.00;99.90;;;;;;5071667;28;20179;-67
2020/12/02 09:09:40;;;;;;;20.50;13.50;;;2.10;99.90;;;;;;5065698;28;20671;-68
2020/12/02 09:12:07;;;;;;;21.77;12.90;;;2.20;99.90;;;;;;5072830;28;20236;-67
2020/12/02 09:14:32;;;;;;;16.20;12.60;;;2.30;99.90;;;;;;5072863;28;20541;-67
2020/12/02 09:16:58;;;;;;;16.33;12.53;;;2.40;99.90;;;;;;5072376;28;20175;-67
2020/12/02 09:19:24;;;;;;;15.67;11.53;;;2.30;99.90;;;;;;5071450;28;20225;-67
2020/12/02 09:21:50;;;;;;;15.23;11.43;;;2.30;99.90;;;;;;5071897;28;20261;-67
2020/12/02 09:24:17;;;;;;;13.90;11.43;;;2.40;99.90;;;;;;5070468;28;20648;-67
2020/12/02 09:26:42;;;;;;;14.53;11.63;;;2.50;99.90;;;;;;5070333;28;20178;-68
2020/12/02 09:29:12;;;;;;;13.43;10.33;;;2.50;99.20;;;;;;5069787;28;20887;-68
2020/12/02 09:31:38;;;;;;;11.23;9.40;;;2.50;99.20;;;;;;5069379;28;20620;-68
2020/12/02 09:34:06;;;;;;;11.17;9.20;;;2.50;98.50;;;;;;5071842;28;20188;-67
2020/12/02 09:36:32;;;;;;;15.53;10.27;;;2.50;98.70;;;;;;5070937;28;20544;-67
2020/12/02 09:38:57;;;;;;;11.03;9.43;;;2.60;99.30;;;;;;5071026;28;20202;-68
2020/12/02 09:41:47;;;;;;;18.17;14.40;;;2.60;99.40;;;;;;5070875;28;20183;-68
2020/12/02 09:44:51;;;;;;;25.27;22.13;;;2.70;99.90;;;;;;5069585;28;20308;-67
2020/12/02 09:47:19;;;;;;;18.10;14.97;;;2.80;99.90;;;;;;5058462;28;20186;-69
2020/12/02 09:49:46;;;;;;;14.77;11.70;;;2.90;99.90;;;;;;5058447;28;20222;-67
2020/12/02 09:52:12;;;;;;;14.20;11.60;;;3.00;99.90;;;;;;5071303;28;20179;-68
2020/12/02 09:54:40;;;;;;;14.67;12.30;;;3.00;98.50;;;;;;5063184;28;20183;-68
2020/12/02 09:57:13;;;;;;;14.90;11.37;;;3.00;98.90;;;;;;5059932;28;20239;-67
2020/12/02 09:59:39;;;;;;;14.70;11.87;;;3.10;98.50;;;;;;5058483;28;20689;-68
2020/12/02 10:02:19;;;;;;;14.37;12.57;;;3.10;98.40;;;;;;5071016;28;20176;-67
2020/12/02 10:05:14;;;;;;;15.00;12.83;;;3.20;99.00;;;;;;5054278;28;20611;-67
2020/12/02 10:08:11;;;;;;;15.33;11.97;;;3.20;97.20;;;;;;5071033;28;20177;-68
2020/12/02 10:10:49;;;;;;;17.13;13.50;;;3.20;97.20;;;;;;5061181;28;20613;-68
2020/12/02 10:13:28;;;;;;;17.53;13.90;;;3.30;98.20;;;;;;5070371;28;20174;-67
2020/12/02 10:16:25;;;;;;;17.90;14.40;;;3.30;97.60;;;;;;5064977;28;20188;-67
2020/12/02 10:19:24;;;;;;;18.60;15.90;;;3.30;97.40;;;;;;5054913;28;20631;-69
2020/12/02 10:21:58;;;;;;;21.30;16.77;;;3.30;97.80;;;;;;5069507;28;20185;-66
2020/12/02 10:24:57;;;;;;;18.20;15.60;;;3.30;97.50;;;;;;5070296;28;20182;-67
2020/12/02 10:27:48;;;;;;;17.77;13.37;;;3.30;97.60;;;;;;5069923;28;20645;-66
2020/12/02 10:30:24;;;;;;;17.23;13.27;;;3.30;98.00;;;;;;5068377;28;20191;-68
2020/12/02 10:33:11;;;;;;;18.03;13.33;;;3.30;97.50;;;;;;5069815;28;20188;-67
2020/12/02 10:35:40;;;;;;;16.70;13.33;;;3.30;96.20;;;;;;5069605;28;20206;-67
2020/12/02 10:38:12;;;;;;;18.63;13.47;;;3.20;96.10;;;;;;5069155;28;20201;-67
2020/12/02 10:40:42;;;;;;;19.93;14.03;;;3.20;96.50;;;;;;5070266;28;20619;-67
2020/12/02 10:43:21;;;;;;;18.77;13.93;;;3.10;96.20;;;;;;5070048;28;20216;-68
2020/12/02 10:45:50;;;;;;;19.33;14.50;;;3.20;96.70;;;;;;5069217;28;20193;-67
2020/12/02 10:48:35;;;;;;;20.97;15.27;;;3.30;97.20;;;;;;5069645;28;20171;-67
2020/12/02 10:51:00;;;;;;;23.70;15.10;;;3.30;96.50;;;;;;5063467;28;20198;-67
2020/12/02 10:53:26;;;;;;;23.90;16.80;;;3.20;96.30;;;;;;5069913;28;20713;-67
2020/12/02 10:55:53;;;;;;;23.03;16.53;;;3.20;97.10;;;;;;5068356;28;20269;-68
2020/12/02 10:58:25;;;;;;;23.63;16.37;;;3.20;97.50;;;;;;5070592;28;20212;-68
2020/12/02 11:00:56;;;;;;;23.40;16.57;;;3.30;97.30;;;;;;5070343;28;20205;-66
2020/12/02 11:03:36;;;;;;;26.47;17.57;;;3.20;96.20;;;;;;5070896;28;20240;-67
2020/12/02 11:06:22;;;;;;;26.30;17.87;;;3.10;96.20;;;;;;5055024;28;20203;-66
2020/12/02 11:08:59;;;;;;;24.60;17.00;;;3.00;97.40;;;;;;5069383;28;20632;-67
2020/12/02 11:11:34;;;;;;;25.00;17.23;;;3.00;97.30;;;;;;5070029;28;20277;-68
2020/12/02 11:14:34;;;;;;;27.13;18.40;;;3.00;97.40;;;;;;5069605;28;20189;-68
2020/12/02 11:17:35;;;;;;;24.20;17.73;;;3.00;97.90;;;;;;5054920;28;20176;-68
2020/12/02 11:20:09;;;;;;;26.73;17.90;;;3.00;98.30;;;;;;5069798;28;20253;-67
2020/12/02 11:22:55;;;;;;;32.00;21.33;;;3.00;98.10;;;;;;5058845;28;20214;-68
2020/12/02 11:25:53;;;;;;;25.23;18.77;;;3.00;98.10;;;;;;5062329;28;20535;-68
2020/12/02 11:28:19;;;;;;;32.23;21.00;;;3.00;98.30;;;;;;5059390;28;20197;-67
2020/12/02 11:30:45;;;;;;;30.10;20.67;;;3.00;98.80;;;;;;5063175;28;20214;-67
2020/12/02 11:33:14;;;;;;;32.10;19.80;;;3.00;99.00;;;;;;5068335;28;20204;-67
2020/12/02 11:36:01;;;;;;;32.77;21.13;;;3.00;98.60;;;;;;5066129;28;20199;-67
2020/12/02 11:39:10;;;;;;;30.50;21.23;;;3.00;98.30;;;;;;5069593;28;20533;-67
2020/12/02 11:41:40;;;;;;;33.90;22.40;;;3.10;98.60;;;;;;5055242;28;20197;-67
2020/12/02 11:44:24;;;;;;;33.00;24.03;;;3.10;98.10;;;;;;5067529;28;20271;-67
2020/12/02 11:46:56;;;;;;;32.10;23.70;;;3.10;98.50;;;;;;5069572;28;20190;-67
2020/12/02 11:49:33;;;;;;;37.23;26.80;;;3.20;98.70;;;;;;5065377;28;20196;-67
2020/12/02 11:52:27;;;;;;;37.03;28.13;;;3.20;98.20;;;;;;5061611;28;20275;-67
2020/12/02 11:54:55;;;;;;;42.77;30.40;;;3.10;97.90;;;;;;5069490;28;20192;-68
2020/12/02 11:57:21;;;;;;;43.87;33.20;;;3.20;98.40;;;;;;5069354;28;20660;-68
2020/12/02 11:59:46;;;;;;;48.00;32.00;;;3.20;98.50;;;;;;5068500;28;20209;-68
2020/12/02 12:02:12;;;;;;;36.23;25.40;;;3.20;98.00;;;;;;5060212;28;20191;-67
2020/12/02 12:04:48;;;;;;;31.10;22.83;;;3.20;98.00;;;;;;5069471;28;20610;-67
2020/12/02 12:07:22;;;;;;;31.17;21.73;;;3.20;98.20;;;;;;5069053;28;20215;-67
2020/12/02 12:10:00;;;;;;;34.50;22.20;;;3.20;98.10;;;;;;5063811;28;20233;-68
2020/12/02 12:12:45;;;;;;;31.80;21.00;;;3.20;97.30;;;;;;5054820;28;20184;-68
2020/12/02 12:15:26;;;;;;;32.70;21.60;;;3.10;97.50;;;;;;5072328;28;20227;-66
2020/12/02 12:17:54;;;;;;;35.73;25.10;;;3.10;97.80;;;;;;5072613;28;20593;-66
2020/12/02 12:20:23;;;;;;;38.20;25.47;;;3.10;97.80;;;;;;5072751;28;20208;-70
2020/12/02 12:23:01;;;;;;;33.03;23.30;;;3.20;97.90;;;;;;5059492;28;20184;-67
2020/12/02 12:25:36;;;;;;;32.87;22.90;;;3.30;97.60;;;;;;5071302;28;20691;-67
2020/12/02 12:28:23;;;;;;;38.93;24.90;;;3.30;97.20;;;;;;5059681;28;20595;-67
2020/12/02 12:30:50;;;;;;;38.93;27.10;;;3.40;97.20;;;;;;5060618;28;20210;-69
2020/12/02 12:33:27;;;;;;;29.50;20.90;;;3.40;97.40;;;;;;5071168;28;20184;-66
2020/12/02 12:35:57;;;;;;;29.47;19.90;;;3.50;97.20;;;;;;5071364;28;20238;-67
2020/12/02 12:38:43;;;;;;;29.07;20.03;;;3.30;96.60;;;;;;5062373;28;20220;-68
2020/12/02 12:41:22;;;;;;;28.80;19.53;;;3.20;96.70;;;;;;5072868;28;20190;-68
2020/12/02 12:44:29;;;;;;;29.50;20.17;;;3.00;96.70;;;;;;5067196;28;20263;-67
2020/12/02 12:47:01;;;;;;;31.23;26.23;;;2.80;97.40;;;;;;5053088;28;20418;-67
2020/12/02 12:49:29;;;;;;;30.97;21.73;;;2.70;98.10;;;;;;5071679;28;20288;-67
2020/12/02 12:51:57;;;;;;;28.30;21.07;;;2.70;98.40;;;;;;5072389;28;20195;-66
2020/12/02 12:54:23;;;;;;;30.27;20.43;;;2.60;97.90;;;;;;5068624;28;20261;-67
2020/12/02 12:56:52;;;;;;;36.00;23.47;;;2.50;98.70;;;;;;5064931;28;20222;-68
2020/12/02 12:59:19;;;;;;;31.73;21.23;;;2.60;98.80;;;;;;5071351;28;20192;-68
2020/12/02 13:01:47;;;;;;;33.87;22.03;;;2.40;98.60;;;;;;5070036;28;20764;-67
2020/12/02 13:04:15;;;;;;;31.67;22.83;;;2.30;98.30;;;;;;5069430;28;20688;-67
2020/12/02 13:06:47;;;;;;;33.20;22.20;;;2.30;98.40;;;;;;5067429;28;20203;-67
2020/12/02 13:09:40;;;;;;;30.33;22.57;;;2.30;98.40;;;;;;5071873;28;20199;-67
2020/12/02 13:12:19;;;;;;;28.90;20.40;;;2.30;98.40;;;;;;5069149;28;20181;-67
2020/12/02 13:15:05;;;;;;;24.70;18.13;;;2.30;98.50;;;;;;5062257;28;20203;-67
2020/12/02 13:17:50;;;;;;;29.03;18.03;;;2.30;98.30;;;;;;5070795;28;20640;-68
2020/12/02 13:20:49;;;;;;;29.30;18.27;;;2.30;98.10;;;;;;5063060;28;20191;-67
2020/12/02 13:23:27;;;;;;;28.27;17.07;;;2.10;98.20;;;;;;5045145;28;20201;-68
2020/12/02 13:25:57;;;;;;;24.50;17.77;;;2.10;98.10;;;;;;5070873;28;20182;-67
2020/12/02 13:28:38;;;;;;;30.43;17.73;;;2.10;98.80;;;;;;5067701;28;20258;-68
2020/12/02 13:31:23;;;;;;;27.90;17.53;;;2.10;98.50;;;;;;5054856;28;20208;-67
2020/12/02 13:33:51;;;;;;;29.37;20.80;;;2.10;98.50;;;;;;5065738;28;20410;-67